sensor_id;sensor_type;location;lat;lon;timestamp;pressure;altitude;pressure_sealevel;temperature;humidity
5595;BME280;1003;48.002;7.788;2023-04-10T00:02:20;99410.59;;;7.75;100.00
5595;BME280;1003;48.002;7.788;2023-04-10T00:04:47;99413.94;;;7.78;100.00
5595;BME280;1003;48.002;7.788;2023-04-10T00:07:14;99423.03;;;7.64;100.00
5595;BME280;1003;48.002;7.788;2023-04-10T00:09:41;99421.22;;;7.40;100.00
5595;BME280;1003;48.002;7.788;2023-04-10T00:12:08;99421.84;;;7.07;100.00
5595;BME280;1003;48.002;7.788;2023-04-10T00:14:36;99421.59;;;6.79;100.00
5595;BME280;1003;48.002;7.788;2023-04-10T00:17:03;99420.53;;;6.53;100.00
5595;BME280;1003;48.002;7.788;2023-04-10T00:19:32;99416.09;;;6.27;100.00
5595;BME280;1003;48.002;7.788;2023-04-10T00:21:59;99411.63;;;6.00;100.00
5595;BME280;1003;48.002;7.788;2023-04-10T00:24:26;99405.50;;;5.78;100.00
5595;BME280;1003;48.002;7.788;2023-04-10T00:26:53;99403.56;;;5.59;100.00
5595;BME280;1003;48.002;7.788;2023-04-10T00:29:21;99404.28;;;5.49;100.00
5595;BME280;1003;48.002;7.788;2023-04-10T00:31:48;99410.16;;;5.54;100.00
5595;BME280;1003;48.002;7.788;2023-04-10T00:34:16;99409.22;;;5.44;100.00
5595;BME280;1003;48.002;7.788;2023-04-10T00:36:44;99406.78;;;5.49;100.00
5595;BME280;1003;48.002;7.788;2023-04-10T00:39:12;99406.38;;;5.82;100.00
5595;BME280;1003;48.002;7.788;2023-04-10T00:41:39;99405.44;;;5.74;100.00
5595;BME280;1003;48.002;7.788;2023-04-10T00:44:06;99410.41;;;5.74;100.00
5595;BME280;1003;48.002;7.788;2023-04-10T00:46:35;99400.38;;;5.66;100.00
5595;BME280;1003;48.002;7.788;2023-04-10T00:49:04;99404.31;;;5.53;100.00
5595;BME280;1003;48.002;7.788;2023-04-10T00:51:32;99410.72;;;5.36;100.00
5595;BME280;1003;48.002;7.788;2023-04-10T00:54:00;99404.97;;;5.39;100.00
5595;BME280;1003;48.002;7.788;2023-04-10T00:56:29;99406.56;;;5.35;100.00
5595;BME280;1003;48.002;7.788;2023-04-10T00:58:57;99409.00;;;5.32;100.00
5595;BME280;1003;48.002;7.788;2023-04-10T01:01:24;99404.06;;;5.35;100.00
5595;BME280;1003;48.002;7.788;2023-04-10T01:03:51;99397.28;;;5.26;100.00
5595;BME280;1003;48.002;7.788;2023-04-10T01:06:34;99398.94;;;5.26;100.00
5595;BME280;1003;48.002;7.788;2023-04-10T01:09:12;99392.59;;;5.46;100.00
5595;BME280;1003;48.002;7.788;2023-04-10T01:11:50;99396.88;;;5.55;100.00
5595;BME280;1003;48.002;7.788;2023-04-10T01:14:26;99406.72;;;5.47;100.00
5595;BME280;1003;48.002;7.788;2023-04-10T01:17:03;99400.38;;;5.66;100.00
5595;BME280;1003;48.002;7.788;2023-04-10T01:20:00;99402.66;;;5.52;100.00
5595;BME280;1003;48.002;7.788;2023-04-10T01:22:35;99405.81;;;5.39;100.00
5595;BME280;1003;48.002;7.788;2023-04-10T01:25:37;99407.31;;;5.30;100.00
5595;BME280;1003;48.002;7.788;2023-04-10T01:28:23;99412.31;;;5.31;100.00
5595;BME280;1003;48.002;7.788;2023-04-10T01:30:58;99412.22;;;5.25;100.00
5595;BME280;1003;48.002;7.788;2023-04-10T01:33:34;99410.81;;;5.42;100.00
5595;BME280;1003;48.002;7.788;2023-04-10T01:36:07;99415.03;;;5.48;100.00
5595;BME280;1003;48.002;7.788;2023-04-10T01:38:40;99411.00;;;5.55;100.00
5595;BME280;1003;48.002;7.788;2023-04-10T01:41:08;99402.84;;;5.66;100.00
5595;BME280;1003;48.002;7.788;2023-04-10T01:43:38;99407.78;;;5.65;100.00
5595;BME280;1003;48.002;7.788;2023-04-10T01:46:08;99407.41;;;5.36;100.00
5595;BME280;1003;48.002;7.788;2023-04-10T01:48:38;99413.38;;;4.44;100.00
5595;BME280;1003;48.002;7.788;2023-04-10T01:51:08;99417.19;;;3.83;100.00
5595;BME280;1003;48.002;7.788;2023-04-10T01:53:36;99424.34;;;3.69;100.00
5595;BME280;1003;48.002;7.788;2023-04-10T01:56:06;99438.91;;;3.54;100.00
5595;BME280;1003;48.002;7.788;2023-04-10T01:58:34;99449.53;;;3.47;100.00
5595;BME280;1003;48.002;7.788;2023-04-10T02:01:01;99448.66;;;3.45;100.00
5595;BME280;1003;48.002;7.788;2023-04-10T02:03:31;99459.50;;;3.50;100.00
5595;BME280;1003;48.002;7.788;2023-04-10T02:06:10;99456.53;;;3.64;100.00
5595;BME280;1003;48.002;7.788;2023-04-10T02:08:49;99456.88;;;3.80;100.00
5595;BME280;1003;48.002;7.788;2023-04-10T02:11:32;99458.06;;;3.97;100.00
5595;BME280;1003;48.002;7.788;2023-04-10T02:14:07;99451.63;;;4.07;100.00
5595;BME280;1003;48.002;7.788;2023-04-10T02:16:37;99459.28;;;4.16;100.00
5595;BME280;1003;48.002;7.788;2023-04-10T02:19:09;99449.47;;;4.24;100.00
5595;BME280;1003;48.002;7.788;2023-04-10T02:21:39;99455.38;;;4.29;100.00
5595;BME280;1003;48.002;7.788;2023-04-10T02:24:08;99456.00;;;4.18;100.00
5595;BME280;1003;48.002;7.788;2023-04-10T02:26:45;99446.66;;;4.07;100.00
5595;BME280;1003;48.002;7.788;2023-04-10T02:29:13;99450.78;;;4.05;100.00
5595;BME280;1003;48.002;7.788;2023-04-10T02:31:40;99455.84;;;4.09;100.00
5595;BME280;1003;48.002;7.788;2023-04-10T02:34:09;99452.56;;;4.10;100.00
5595;BME280;1003;48.002;7.788;2023-04-10T02:36:36;99454.88;;;4.03;100.00
5595;BME280;1003;48.002;7.788;2023-04-10T02:39:04;99458.84;;;3.93;100.00
5595;BME280;1003;48.002;7.788;2023-04-10T02:41:32;99459.47;;;3.84;100.00
5595;BME280;1003;48.002;7.788;2023-04-10T02:43:59;99461.00;;;3.78;100.00
5595;BME280;1003;48.002;7.788;2023-04-10T02:46:26;99470.97;;;3.79;100.00
5595;BME280;1003;48.002;7.788;2023-04-10T02:48:54;99474.22;;;3.77;100.00
5595;BME280;1003;48.002;7.788;2023-04-10T02:51:22;99474.03;;;3.67;100.00
5595;BME280;1003;48.002;7.788;2023-04-10T02:53:50;99476.38;;;3.61;100.00
5595;BME280;1003;48.002;7.788;2023-04-10T02:56:18;99477.13;;;3.59;100.00
5595;BME280;1003;48.002;7.788;2023-04-10T02:58:45;99479.25;;;3.80;100.00
5595;BME280;1003;48.002;7.788;2023-04-10T03:01:12;99481.44;;;3.66;100.00
5595;BME280;1003;48.002;7.788;2023-04-10T03:03:39;99476.25;;;3.57;100.00
5595;BME280;1003;48.002;7.788;2023-04-10T03:06:08;99478.47;;;3.45;100.00
5595;BME280;1003;48.002;7.788;2023-04-10T03:08:36;99488.50;;;3.49;100.00
5595;BME280;1003;48.002;7.788;2023-04-10T03:11:04;99486.94;;;3.53;100.00
5595;BME280;1003;48.002;7.788;2023-04-10T03:13:31;99483.28;;;3.38;100.00
5595;BME280;1003;48.002;7.788;2023-04-10T03:15:58;99482.31;;;3.33;100.00
5595;BME280;1003;48.002;7.788;2023-04-10T03:18:25;99475.69;;;3.32;100.00
5595;BME280;1003;48.002;7.788;2023-04-10T03:20:52;99481.72;;;3.42;100.00
5595;BME280;1003;48.002;7.788;2023-04-10T03:23:20;99488.00;;;3.64;100.00
5595;BME280;1003;48.002;7.788;2023-04-10T03:25:50;99475.94;;;3.79;100.00
5595;BME280;1003;48.002;7.788;2023-04-10T03:28:19;99469.41;;;3.84;100.00
5595;BME280;1003;48.002;7.788;2023-04-10T03:30:47;99465.47;;;3.94;100.00
5595;BME280;1003;48.002;7.788;2023-04-10T03:33:14;99458.50;;;4.18;100.00
5595;BME280;1003;48.002;7.788;2023-04-10T03:35:41;99449.44;;;4.20;100.00
5595;BME280;1003;48.002;7.788;2023-04-10T03:38:08;99448.03;;;4.33;100.00
5595;BME280;1003;48.002;7.788;2023-04-10T03:40:35;99445.53;;;4.33;100.00
5595;BME280;1003;48.002;7.788;2023-04-10T03:43:04;99434.75;;;4.33;100.00
5595;BME280;1003;48.002;7.788;2023-04-10T03:45:31;99436.31;;;4.29;100.00
5595;BME280;1003;48.002;7.788;2023-04-10T03:47:59;99435.56;;;4.33;100.00
5595;BME280;1003;48.002;7.788;2023-04-10T03:50:26;99434.84;;;4.37;100.00
5595;BME280;1003;48.002;7.788;2023-04-10T03:52:53;99432.47;;;4.45;100.00
5595;BME280;1003;48.002;7.788;2023-04-10T03:55:20;99429.69;;;4.73;100.00
5595;BME280;1003;48.002;7.788;2023-04-10T03:57:48;99428.81;;;4.73;100.00
5595;BME280;1003;48.002;7.788;2023-04-10T04:00:18;99420.50;;;4.71;100.00
5595;BME280;1003;48.002;7.788;2023-04-10T04:02:46;99419.75;;;4.75;100.00
5595;BME280;1003;48.002;7.788;2023-04-10T04:05:15;99414.75;;;4.75;100.00
5595;BME280;1003;48.002;7.788;2023-04-10T04:07:42;99422.91;;;4.68;100.00
5595;BME280;1003;48.002;7.788;2023-04-10T04:10:10;99419.50;;;4.61;100.00
5595;BME280;1003;48.002;7.788;2023-04-10T04:12:37;99427.88;;;4.65;100.00
5595;BME280;1003;48.002;7.788;2023-04-10T04:15:05;99430.53;;;4.76;100.00
5595;BME280;1003;48.002;7.788;2023-04-10T04:17:33;99428.03;;;4.74;100.00
5595;BME280;1003;48.002;7.788;2023-04-10T04:20:00;99424.09;;;4.87;100.00
5595;BME280;1003;48.002;7.788;2023-04-10T04:22:28;99427.44;;;4.89;100.00
5595;BME280;1003;48.002;7.788;2023-04-10T04:24:55;99431.63;;;4.91;100.00
5595;BME280;1003;48.002;7.788;2023-04-10T04:27:22;99422.41;;;4.86;100.00
5595;BME280;1003;48.002;7.788;2023-04-10T04:29:49;99427.28;;;4.80;100.00
5595;BME280;1003;48.002;7.788;2023-04-10T04:32:16;99423.16;;;4.80;100.00
5595;BME280;1003;48.002;7.788;2023-04-10T04:34:44;99425.56;;;4.77;100.00
5595;BME280;1003;48.002;7.788;2023-04-10T04:37:11;99427.47;;;4.90;100.00
5595;BME280;1003;48.002;7.788;2023-04-10T04:39:38;99428.41;;;4.95;100.00
5595;BME280;1003;48.002;7.788;2023-04-10T04:42:05;99426.47;;;4.81;100.00
5595;BME280;1003;48.002;7.788;2023-04-10T04:44:32;99430.34;;;4.63;100.00
5595;BME280;1003;48.002;7.788;2023-04-10T04:47:00;99436.00;;;4.56;100.00
5595;BME280;1003;48.002;7.788;2023-04-10T04:49:27;99443.53;;;4.59;100.00
5595;BME280;1003;48.002;7.788;2023-04-10T04:51:55;99434.44;;;4.61;100.00
5595;BME280;1003;48.002;7.788;2023-04-10T04:54:22;99441.56;;;4.43;100.00
5595;BME280;1003;48.002;7.788;2023-04-10T04:56:49;99437.94;;;4.27;100.00
5595;BME280;1003;48.002;7.788;2023-04-10T04:59:16;99445.47;;;4.30;100.00
5595;BME280;1003;48.002;7.788;2023-04-10T05:01:43;99446.16;;;4.23;100.00
5595;BME280;1003;48.002;7.788;2023-04-10T05:04:10;99449.38;;;4.17;100.00
5595;BME280;1003;48.002;7.788;2023-04-10T05:06:37;99449.28;;;4.13;100.00
5595;BME280;1003;48.002;7.788;2023-04-10T05:09:05;99455.78;;;4.08;100.00
5595;BME280;1003;48.002;7.788;2023-04-10T05:11:32;99458.03;;;3.95;100.00
5595;BME280;1003;48.002;7.788;2023-04-10T05:13:59;99463.69;;;3.16;100.00
5595;BME280;1003;48.002;7.788;2023-04-10T05:16:26;99464.97;;;2.67;100.00
5595;BME280;1003;48.002;7.788;2023-04-10T05:18:54;99477.56;;;2.43;100.00
5595;BME280;1003;48.002;7.788;2023-04-10T05:21:23;99483.03;;;2.31;100.00
5595;BME280;1003;48.002;7.788;2023-04-10T05:23:50;99515.28;;;2.31;100.00
5595;BME280;1003;48.002;7.788;2023-04-10T05:26:18;99521.19;;;2.36;100.00
5595;BME280;1003;48.002;7.788;2023-04-10T05:28:45;99530.31;;;2.68;100.00
5595;BME280;1003;48.002;7.788;2023-04-10T05:31:12;99534.97;;;2.85;100.00
5595;BME280;1003;48.002;7.788;2023-04-10T05:33:40;99543.41;;;2.92;100.00
5595;BME280;1003;48.002;7.788;2023-04-10T05:36:08;99540.53;;;3.10;100.00
5595;BME280;1003;48.002;7.788;2023-04-10T05:38:35;99546.00;;;3.28;100.00
5595;BME280;1003;48.002;7.788;2023-04-10T05:41:02;99552.13;;;3.42;100.00
5595;BME280;1003;48.002;7.788;2023-04-10T05:43:30;99552.56;;;3.61;100.00
5595;BME280;1003;48.002;7.788;2023-04-10T05:45:57;99551.44;;;3.83;100.00
5595;BME280;1003;48.002;7.788;2023-04-10T05:48:24;99571.81;;;4.04;100.00
5595;BME280;1003;48.002;7.788;2023-04-10T05:50:51;99574.56;;;4.18;100.00
5595;BME280;1003;48.002;7.788;2023-04-10T05:53:19;99573.25;;;4.32;100.00
5595;BME280;1003;48.002;7.788;2023-04-10T05:55:48;99578.41;;;4.41;100.00
5595;BME280;1003;48.002;7.788;2023-04-10T05:58:17;99577.28;;;4.27;100.00
5595;BME280;1003;48.002;7.788;2023-04-10T06:00:45;99569.47;;;4.51;100.00
5595;BME280;1003;48.002;7.788;2023-04-10T06:03:12;99582.31;;;4.71;100.00
5595;BME280;1003;48.002;7.788;2023-04-10T06:05:39;99571.19;;;4.96;100.00
5595;BME280;1003;48.002;7.788;2023-04-10T06:08:07;99578.38;;;5.26;100.00
5595;BME280;1003;48.002;7.788;2023-04-10T06:10:34;99574.44;;;5.90;100.00
5595;BME280;1003;48.002;7.788;2023-04-10T06:13:01;99568.34;;;6.96;100.00
5595;BME280;1003;48.002;7.788;2023-04-10T06:15:28;99549.69;;;7.50;100.00
5595;BME280;1003;48.002;7.788;2023-04-10T06:17:56;99520.66;;;6.76;100.00
5595;BME280;1003;48.002;7.788;2023-04-10T06:20:24;99529.03;;;6.79;100.00
5595;BME280;1003;48.002;7.788;2023-04-10T06:22:51;99531.47;;;6.78;100.00
5595;BME280;1003;48.002;7.788;2023-04-10T06:25:18;99537.53;;;6.98;100.00
5595;BME280;1003;48.002;7.788;2023-04-10T06:27:45;99539.41;;;7.16;100.00
5595;BME280;1003;48.002;7.788;2023-04-10T06:30:12;99535.28;;;7.26;100.00
5595;BME280;1003;48.002;7.788;2023-04-10T06:32:39;99522.25;;;7.62;100.00
5595;BME280;1003;48.002;7.788;2023-04-10T06:35:08;99514.13;;;7.94;100.00
5595;BME280;1003;48.002;7.788;2023-04-10T06:37:35;99502.56;;;8.14;100.00
5595;BME280;1003;48.002;7.788;2023-04-10T06:40:05;99507.69;;;8.38;100.00
5595;BME280;1003;48.002;7.788;2023-04-10T06:42:33;99505.38;;;9.07;100.00
5595;BME280;1003;48.002;7.788;2023-04-10T06:45:01;99494.41;;;10.06;100.00
5595;BME280;1003;48.002;7.788;2023-04-10T06:47:28;99469.84;;;10.72;100.00
5595;BME280;1003;48.002;7.788;2023-04-10T06:49:55;99449.28;;;11.34;100.00
5595;BME280;1003;48.002;7.788;2023-04-10T06:52:24;99428.00;;;11.65;100.00
5595;BME280;1003;48.002;7.788;2023-04-10T06:54:51;99417.75;;;11.80;100.00
5595;BME280;1003;48.002;7.788;2023-04-10T06:57:18;99404.28;;;10.97;100.00
5595;BME280;1003;48.002;7.788;2023-04-10T06:59:45;99395.50;;;10.39;100.00
5595;BME280;1003;48.002;7.788;2023-04-10T07:02:12;99404.00;;;10.06;100.00
5595;BME280;1003;48.002;7.788;2023-04-10T07:04:39;99396.53;;;9.95;100.00
5595;BME280;1003;48.002;7.788;2023-04-10T07:07:08;99393.88;;;10.28;100.00
5595;BME280;1003;48.002;7.788;2023-04-10T07:09:38;99393.09;;;10.13;100.00
5595;BME280;1003;48.002;7.788;2023-04-10T07:12:05;99394.59;;;10.51;100.00
5595;BME280;1003;48.002;7.788;2023-04-10T07:14:33;99392.97;;;10.44;100.00
5595;BME280;1003;48.002;7.788;2023-04-10T07:17:00;99393.59;;;10.72;100.00
5595;BME280;1003;48.002;7.788;2023-04-10T07:19:28;99390.75;;;11.12;100.00
5595;BME280;1003;48.002;7.788;2023-04-10T07:21:55;99390.38;;;11.53;100.00
5595;BME280;1003;48.002;7.788;2023-04-10T07:24:22;99387.69;;;11.68;100.00
5595;BME280;1003;48.002;7.788;2023-04-10T07:26:51;99385.72;;;11.95;100.00
5595;BME280;1003;48.002;7.788;2023-04-10T07:29:19;99392.09;;;12.79;100.00
5595;BME280;1003;48.002;7.788;2023-04-10T07:31:46;99391.03;;;12.94;100.00
5595;BME280;1003;48.002;7.788;2023-04-10T07:34:13;99389.47;;;12.86;100.00
5595;BME280;1003;48.002;7.788;2023-04-10T07:36:40;99385.22;;;12.88;100.00
5595;BME280;1003;48.002;7.788;2023-04-10T07:39:07;99384.78;;;12.62;100.00
5595;BME280;1003;48.002;7.788;2023-04-10T07:41:34;99384.44;;;12.26;100.00
5595;BME280;1003;48.002;7.788;2023-04-10T07:44:03;99383.31;;;12.49;100.00
5595;BME280;1003;48.002;7.788;2023-04-10T07:46:30;99382.13;;;12.71;100.00
5595;BME280;1003;48.002;7.788;2023-04-10T07:48:57;99382.28;;;13.61;100.00
5595;BME280;1003;48.002;7.788;2023-04-10T07:51:24;99385.09;;;13.89;100.00
5595;BME280;1003;48.002;7.788;2023-04-10T07:53:52;99379.31;;;13.41;100.00
5595;BME280;1003;48.002;7.788;2023-04-10T07:56:20;99381.34;;;13.19;100.00
5595;BME280;1003;48.002;7.788;2023-04-10T07:58:48;99371.97;;;12.74;100.00
5595;BME280;1003;48.002;7.788;2023-04-10T08:01:16;99371.66;;;13.44;100.00
5595;BME280;1003;48.002;7.788;2023-04-10T08:03:46;99371.44;;;12.55;100.00
5595;BME280;1003;48.002;7.788;2023-04-10T08:06:13;99368.34;;;12.38;100.00
5595;BME280;1003;48.002;7.788;2023-04-10T08:08:41;99359.22;;;13.33;100.00
5595;BME280;1003;48.002;7.788;2023-04-10T08:11:22;99353.22;;;13.40;100.00
5595;BME280;1003;48.002;7.788;2023-04-10T08:13:50;99360.78;;;13.83;100.00
5595;BME280;1003;48.002;7.788;2023-04-10T08:16:24;99359.47;;;14.06;100.00
5595;BME280;1003;48.002;7.788;2023-04-10T08:18:52;99358.47;;;13.29;100.00
5595;BME280;1003;48.002;7.788;2023-04-10T08:21:20;99354.25;;;13.73;100.00
5595;BME280;1003;48.002;7.788;2023-04-10T08:23:49;99354.09;;;13.81;100.00
5595;BME280;1003;48.002;7.788;2023-04-10T08:26:17;99353.56;;;13.22;100.00
5595;BME280;1003;48.002;7.788;2023-04-10T08:28:46;99352.38;;;13.41;100.00
5595;BME280;1003;48.002;7.788;2023-04-10T08:31:15;99351.88;;;13.21;100.00
5595;BME280;1003;48.002;7.788;2023-04-10T08:33:43;99349.00;;;13.41;100.00
5595;BME280;1003;48.002;7.788;2023-04-10T08:36:11;99353.84;;;13.03;100.00
5595;BME280;1003;48.002;7.788;2023-04-10T08:38:40;99344.75;;;12.95;100.00
5595;BME280;1003;48.002;7.788;2023-04-10T08:41:09;99347.50;;;13.74;100.00
5595;BME280;1003;48.002;7.788;2023-04-10T08:43:37;99350.59;;;13.45;100.00
5595;BME280;1003;48.002;7.788;2023-04-10T08:46:05;99343.84;;;13.47;100.00
5595;BME280;1003;48.002;7.788;2023-04-10T08:48:46;99353.66;;;14.02;100.00
5595;BME280;1003;48.002;7.788;2023-04-10T08:51:18;99354.41;;;13.19;100.00
5595;BME280;1003;48.002;7.788;2023-04-10T08:53:50;99347.31;;;13.39;100.00
5595;BME280;1003;48.002;7.788;2023-04-10T08:56:18;99354.00;;;13.85;100.00
5595;BME280;1003;48.002;7.788;2023-04-10T08:58:45;99347.56;;;13.72;100.00
5595;BME280;1003;48.002;7.788;2023-04-10T09:01:13;99352.66;;;13.69;100.00
5595;BME280;1003;48.002;7.788;2023-04-10T09:03:41;99351.34;;;13.50;100.00
5595;BME280;1003;48.002;7.788;2023-04-10T09:06:09;99342.88;;;13.52;100.00
5595;BME280;1003;48.002;7.788;2023-04-10T09:08:36;99342.38;;;13.77;100.00
5595;BME280;1003;48.002;7.788;2023-04-10T09:11:05;99335.16;;;13.60;100.00
5595;BME280;1003;48.002;7.788;2023-04-10T09:13:37;99331.91;;;13.95;100.00
5595;BME280;1003;48.002;7.788;2023-04-10T09:16:06;99325.56;;;13.76;100.00
5595;BME280;1003;48.002;7.788;2023-04-10T09:18:48;99325.56;;;14.14;100.00
5595;BME280;1003;48.002;7.788;2023-04-10T09:21:19;99318.91;;;14.12;100.00
5595;BME280;1003;48.002;7.788;2023-04-10T09:23:47;99317.38;;;14.05;100.00
5595;BME280;1003;48.002;7.788;2023-04-10T09:26:26;99310.09;;;14.28;100.00
5595;BME280;1003;48.002;7.788;2023-04-10T09:28:59;99307.91;;;14.13;100.00
5595;BME280;1003;48.002;7.788;2023-04-10T09:31:29;99314.75;;;14.45;100.00
5595;BME280;1003;48.002;7.788;2023-04-10T09:34:11;99303.09;;;14.39;100.00
5595;BME280;1003;48.002;7.788;2023-04-10T09:36:40;99307.06;;;14.51;100.00
5595;BME280;1003;48.002;7.788;2023-04-10T09:39:09;99302.47;;;14.67;100.00
5595;BME280;1003;48.002;7.788;2023-04-10T09:41:51;99306.25;;;14.83;100.00
5595;BME280;1003;48.002;7.788;2023-04-10T09:44:29;99295.94;;;15.22;100.00
5595;BME280;1003;48.002;7.788;2023-04-10T09:46:56;99301.84;;;14.91;100.00
5595;BME280;1003;48.002;7.788;2023-04-10T09:49:24;99292.38;;;14.98;100.00
5595;BME280;1003;48.002;7.788;2023-04-10T09:51:52;99294.97;;;14.96;100.00
5595;BME280;1003;48.002;7.788;2023-04-10T09:54:35;99286.63;;;15.24;100.00
5595;BME280;1003;48.002;7.788;2023-04-10T09:57:04;99288.00;;;15.05;100.00
5595;BME280;1003;48.002;7.788;2023-04-10T09:59:37;99285.28;;;15.11;100.00
5595;BME280;1003;48.002;7.788;2023-04-10T10:02:06;99271.75;;;15.12;100.00
5595;BME280;1003;48.002;7.788;2023-04-10T10:04:34;99268.50;;;15.39;100.00
5595;BME280;1003;48.002;7.788;2023-04-10T10:07:03;99264.47;;;14.68;100.00
5595;BME280;1003;48.002;7.788;2023-04-10T10:09:31;99266.66;;;15.44;100.00
5595;BME280;1003;48.002;7.788;2023-04-10T10:11:58;99262.28;;;15.79;100.00
5595;BME280;1003;48.002;7.788;2023-04-10T10:14:27;99258.59;;;15.30;100.00
5595;BME280;1003;48.002;7.788;2023-04-10T10:16:59;99253.56;;;15.58;100.00
5595;BME280;1003;48.002;7.788;2023-04-10T10:19:32;99250.81;;;15.67;100.00
5595;BME280;1003;48.002;7.788;2023-04-10T10:22:06;99257.59;;;16.21;100.00
5595;BME280;1003;48.002;7.788;2023-04-10T10:24:38;99256.78;;;16.19;98.20
5595;BME280;1003;48.002;7.788;2023-04-10T10:27:13;99252.38;;;15.98;99.65
5595;BME280;1003;48.002;7.788;2023-04-10T10:29:45;99248.50;;;16.14;95.96
5595;BME280;1003;48.002;7.788;2023-04-10T10:32:16;99239.56;;;16.31;96.21
5595;BME280;1003;48.002;7.788;2023-04-10T10:34:44;99240.88;;;16.41;98.22
5595;BME280;1003;48.002;7.788;2023-04-10T10:37:13;99238.75;;;16.80;99.91
5595;BME280;1003;48.002;7.788;2023-04-10T10:39:51;99243.09;;;16.76;98.27
5595;BME280;1003;48.002;7.788;2023-04-10T10:42:39;99243.38;;;16.67;100.00
5595;BME280;1003;48.002;7.788;2023-04-10T10:45:11;99241.22;;;17.75;97.50
5595;BME280;1003;48.002;7.788;2023-04-10T10:47:44;99229.59;;;18.12;93.77
5595;BME280;1003;48.002;7.788;2023-04-10T10:50:11;99236.22;;;17.50;95.89
5595;BME280;1003;48.002;7.788;2023-04-10T10:52:43;99234.19;;;17.37;95.29
5595;BME280;1003;48.002;7.788;2023-04-10T10:55:33;99226.22;;;18.12;99.02
5595;BME280;1003;48.002;7.788;2023-04-10T10:58:05;99228.94;;;18.49;92.59
5595;BME280;1003;48.002;7.788;2023-04-10T11:01:05;99222.50;;;18.20;92.41
5595;BME280;1003;48.002;7.788;2023-04-10T11:03:33;99217.28;;;18.64;91.97
5595;BME280;1003;48.002;7.788;2023-04-10T11:06:03;99216.19;;;18.49;90.69
5595;BME280;1003;48.002;7.788;2023-04-10T11:08:41;99218.75;;;18.90;87.87
5595;BME280;1003;48.002;7.788;2023-04-10T11:11:18;99214.63;;;18.47;85.65
5595;BME280;1003;48.002;7.788;2023-04-10T11:14:12;99217.81;;;18.52;82.71
5595;BME280;1003;48.002;7.788;2023-04-10T11:16:45;99215.69;;;18.61;86.86
5595;BME280;1003;48.002;7.788;2023-04-10T11:19:13;99211.47;;;18.60;88.18
5595;BME280;1003;48.002;7.788;2023-04-10T11:22:07;99217.72;;;18.94;86.50
5595;BME280;1003;48.002;7.788;2023-04-10T11:24:57;99213.09;;;19.40;86.39
5595;BME280;1003;48.002;7.788;2023-04-10T11:27:45;99213.94;;;19.22;79.49
5595;BME280;1003;48.002;7.788;2023-04-10T11:30:32;99213.22;;;18.99;81.90
5595;BME280;1003;48.002;7.788;2023-04-10T11:33:00;99203.47;;;18.90;83.32
5595;BME280;1003;48.002;7.788;2023-04-10T11:35:30;99200.66;;;18.96;88.71
5595;BME280;1003;48.002;7.788;2023-04-10T11:38:24;99196.22;;;19.56;80.00
5595;BME280;1003;48.002;7.788;2023-04-10T11:41:01;99192.63;;;20.14;77.16
5595;BME280;1003;48.002;7.788;2023-04-10T11:43:31;99199.66;;;18.99;80.46
5595;BME280;1003;48.002;7.788;2023-04-10T11:46:01;99192.31;;;19.30;79.32
5595;BME280;1003;48.002;7.788;2023-04-10T11:48:29;99198.88;;;19.91;79.04
5595;BME280;1003;48.002;7.788;2023-04-10T11:50:57;99211.75;;;19.88;77.47
5595;BME280;1003;48.002;7.788;2023-04-10T11:53:26;99209.97;;;20.25;79.84
5595;BME280;1003;48.002;7.788;2023-04-10T11:55:56;99197.59;;;20.34;77.66
5595;BME280;1003;48.002;7.788;2023-04-10T11:58:25;99202.84;;;20.49;76.73
5595;BME280;1003;48.002;7.788;2023-04-10T12:01:00;99200.00;;;20.70;75.89
5595;BME280;1003;48.002;7.788;2023-04-10T12:03:36;99195.84;;;20.52;79.33
5595;BME280;1003;48.002;7.788;2023-04-10T12:06:07;99184.81;;;20.34;75.62
5595;BME280;1003;48.002;7.788;2023-04-10T12:08:38;99185.31;;;21.07;77.72
5595;BME280;1003;48.002;7.788;2023-04-10T12:11:08;99186.19;;;21.55;73.00
5595;BME280;1003;48.002;7.788;2023-04-10T12:13:36;99177.06;;;21.95;69.08
5595;BME280;1003;48.002;7.788;2023-04-10T12:16:07;99169.91;;;21.56;66.86
5595;BME280;1003;48.002;7.788;2023-04-10T12:18:36;99161.81;;;21.80;66.25
5595;BME280;1003;48.002;7.788;2023-04-10T12:21:05;99159.63;;;21.88;66.91
5595;BME280;1003;48.002;7.788;2023-04-10T12:23:35;99164.78;;;21.56;67.59
5595;BME280;1003;48.002;7.788;2023-04-10T12:26:11;99158.47;;;22.08;64.36
5595;BME280;1003;48.002;7.788;2023-04-10T12:28:40;99153.09;;;21.82;60.24
5595;BME280;1003;48.002;7.788;2023-04-10T12:31:09;99160.44;;;21.58;60.59
5595;BME280;1003;48.002;7.788;2023-04-10T12:33:36;99158.53;;;21.46;62.21
5595;BME280;1003;48.002;7.788;2023-04-10T12:36:04;99158.22;;;20.89;62.98
5595;BME280;1003;48.002;7.788;2023-04-10T12:38:39;99156.44;;;21.68;64.37
5595;BME280;1003;48.002;7.788;2023-04-10T12:41:09;99148.09;;;21.81;59.12
5595;BME280;1003;48.002;7.788;2023-04-10T12:43:38;99149.84;;;22.24;57.70
5595;BME280;1003;48.002;7.788;2023-04-10T12:46:08;99140.31;;;21.36;64.54
5595;BME280;1003;48.002;7.788;2023-04-10T12:48:35;99145.09;;;21.88;65.92
5595;BME280;1003;48.002;7.788;2023-04-10T12:51:02;99145.00;;;22.20;59.81
5595;BME280;1003;48.002;7.788;2023-04-10T12:53:29;99151.63;;;22.08;59.90
5595;BME280;1003;48.002;7.788;2023-04-10T12:56:07;99135.94;;;22.14;55.75
5595;BME280;1003;48.002;7.788;2023-04-10T12:58:37;99128.28;;;21.68;54.53
5595;BME280;1003;48.002;7.788;2023-04-10T13:01:07;99122.16;;;21.87;53.46
5595;BME280;1003;48.002;7.788;2023-04-10T13:03:36;99131.31;;;22.05;53.63
5595;BME280;1003;48.002;7.788;2023-04-10T13:06:05;99127.53;;;22.12;46.35
5595;BME280;1003;48.002;7.788;2023-04-10T13:08:33;99135.16;;;21.98;43.10
5595;BME280;1003;48.002;7.788;2023-04-10T13:11:00;99133.06;;;21.13;41.85
5595;BME280;1003;48.002;7.788;2023-04-10T13:13:29;99128.78;;;21.75;43.16
5595;BME280;1003;48.002;7.788;2023-04-10T13:15:57;99129.25;;;21.82;42.49
5595;BME280;1003;48.002;7.788;2023-04-10T13:18:24;99134.97;;;22.01;41.34
5595;BME280;1003;48.002;7.788;2023-04-10T13:20:52;99132.34;;;22.17;41.91
5595;BME280;1003;48.002;7.788;2023-04-10T13:23:19;99134.69;;;22.36;40.93
5595;BME280;1003;48.002;7.788;2023-04-10T13:25:46;99133.78;;;22.51;41.37
5595;BME280;1003;48.002;7.788;2023-04-10T13:28:13;99123.88;;;22.45;44.98
5595;BME280;1003;48.002;7.788;2023-04-10T13:30:42;99120.22;;;22.35;43.71
5595;BME280;1003;48.002;7.788;2023-04-10T13:33:09;99114.34;;;22.33;44.41
5595;BME280;1003;48.002;7.788;2023-04-10T13:35:36;99112.34;;;22.38;44.83